createdAt,value
2018-03-26T00:01:33.483Z,25.27
2018-03-26T00:03:59.940Z,24.37
2018-03-26T00:06:26.320Z,25.40
2018-03-26T00:08:52.521Z,26.47
2018-03-26T00:11:19.538Z,26.83
2018-03-26T00:13:45.729Z,25.67
2018-03-26T00:16:12.026Z,26.70
2018-03-26T00:18:39.001Z,25.17
2018-03-26T00:21:05.359Z,26.23
2018-03-26T00:23:31.706Z,24.80
2018-03-26T00:25:59.521Z,24.87
2018-03-26T00:28:25.745Z,26.37
2018-03-26T00:30:52.051Z,26.10
2018-03-26T00:33:19.021Z,25.73
2018-03-26T00:35:45.263Z,28.30
2018-03-26T00:38:11.570Z,25.50
2018-03-26T00:40:37.784Z,27.40
2018-03-26T00:43:04.126Z,25.77
2018-03-26T00:45:30.309Z,26.47
2018-03-26T00:47:57.278Z,26.67
2018-03-26T00:50:24.179Z,26.00
2018-03-26T00:52:50.395Z,24.83
2018-03-26T00:55:16.659Z,25.40
2018-03-26T00:57:43.696Z,25.70
2018-03-26T01:00:10.043Z,25.33
2018-03-26T01:02:37.056Z,27.37
2018-03-26T01:05:03.334Z,27.37
2018-03-26T01:07:29.707Z,25.87
2018-03-26T01:09:55.950Z,26.30
2018-03-26T01:12:29.957Z,24.80
2018-03-26T01:14:56.252Z,26.20
2018-03-26T01:17:22.478Z,27.90
2018-03-26T01:19:48.657Z,28.77
2018-03-26T01:22:22.696Z,27.60
2018-03-26T01:24:48.873Z,28.37
2018-03-26T01:27:15.176Z,26.73
2018-03-26T01:29:41.527Z,27.10
2018-03-26T01:32:07.799Z,26.53
2018-03-26T01:34:34.075Z,26.07
2018-03-26T01:37:00.321Z,27.50
2018-03-26T01:39:27.272Z,26.63
2018-03-26T01:41:54.155Z,27.20
2018-03-26T01:44:20.366Z,27.70
2018-03-26T01:46:46.531Z,27.07
2018-03-26T01:49:12.747Z,26.87
2018-03-26T01:51:38.926Z,26.50
2018-03-26T01:54:05.935Z,27.40
2018-03-26T01:56:32.154Z,29.23
2018-03-26T01:58:58.353Z,27.83
2018-03-26T02:01:24.654Z,27.40
2018-03-26T02:03:51.769Z,25.80
2018-03-26T02:06:17.978Z,26.87
2018-03-26T02:08:44.332Z,28.07
2018-03-26T02:11:10.562Z,27.87
2018-03-26T02:13:36.778Z,26.07
2018-03-26T02:16:02.974Z,26.47
2018-03-26T02:18:29.266Z,26.03
2018-03-26T02:20:56.182Z,26.67
2018-03-26T02:23:23.220Z,27.37
2018-03-26T02:25:49.397Z,26.17
2018-03-26T02:28:17.998Z,27.63
2018-03-26T02:30:44.259Z,25.90
2018-03-26T02:33:10.510Z,26.37
2018-03-26T02:35:37.468Z,26.50
2018-03-26T02:38:04.452Z,27.67
2018-03-26T02:40:30.639Z,28.57
2018-03-26T02:42:57.572Z,26.27
2018-03-26T02:45:24.489Z,27.87
2018-03-26T02:47:50.769Z,28.27
2018-03-26T02:50:16.975Z,27.10
2018-03-26T02:52:43.895Z,28.00
2018-03-26T02:55:10.089Z,29.50
2018-03-26T02:57:36.252Z,26.90
2018-03-26T03:00:02.449Z,26.10
2018-03-26T03:02:28.618Z,27.10
2018-03-26T03:04:55.577Z,28.27
2018-03-26T03:07:21.907Z,26.97
2018-03-26T03:09:48.139Z,27.43
2018-03-26T03:12:14.375Z,25.50
2018-03-26T03:14:40.663Z,27.77
2018-03-26T03:17:06.920Z,27.90
2018-03-26T03:19:33.216Z,26.47
2018-03-26T03:21:59.440Z,28.90
2018-03-26T03:24:25.711Z,25.53
2018-03-26T03:26:52.012Z,26.63
2018-03-26T03:29:19.003Z,25.10
2018-03-26T03:31:45.250Z,27.10
2018-03-26T03:34:11.960Z,26.87
2018-03-26T03:36:38.201Z,27.20
2018-03-26T03:39:04.548Z,26.00
2018-03-26T03:41:31.082Z,27.40
2018-03-26T03:43:57.806Z,27.23
2018-03-26T03:46:24.087Z,27.87
2018-03-26T03:48:51.158Z,26.17
2018-03-26T03:51:17.428Z,26.73
2018-03-26T03:53:44.419Z,27.40
2018-03-26T03:56:10.755Z,26.60
2018-03-26T03:58:37.025Z,26.90
2018-03-26T04:01:03.356Z,27.50
2018-03-26T04:03:29.680Z,27.77
2018-03-26T04:05:55.882Z,27.37
2018-03-26T04:08:22.251Z,25.90
2018-03-26T04:10:48.436Z,26.77
2018-03-26T04:13:14.670Z,28.20
2018-03-26T04:15:40.852Z,26.90
2018-03-26T04:18:07.862Z,25.80
2018-03-26T04:20:49.022Z,28.10
2018-03-26T04:23:15.200Z,28.13
2018-03-26T04:25:42.249Z,27.20
2018-03-26T04:28:09.256Z,27.30
2018-03-26T04:30:35.436Z,27.00
2018-03-26T04:33:01.652Z,26.67
2018-03-26T04:35:28.586Z,27.70
2018-03-26T04:37:55.676Z,27.00
2018-03-26T04:40:21.968Z,27.87
2018-03-26T04:42:48.946Z,27.53
2018-03-26T04:45:15.274Z,27.60
2018-03-26T04:47:41.504Z,27.70
2018-03-26T04:50:07.859Z,27.40
2018-03-26T04:52:34.056Z,26.90
2018-03-26T04:55:00.378Z,27.70
2018-03-26T04:57:26.602Z,28.70
2018-03-26T04:59:52.817Z,26.20
2018-03-26T05:02:19.012Z,26.53
2018-03-26T05:04:45.361Z,26.30
2018-03-26T05:07:11.602Z,25.20
2018-03-26T05:09:37.776Z,26.23
2018-03-26T05:12:04.045Z,26.43
2018-03-26T05:14:31.133Z,25.57
2018-03-26T05:16:57.358Z,25.10
2018-03-26T05:19:23.656Z,24.77
2018-03-26T05:21:49.883Z,23.77
2018-03-26T05:24:16.111Z,25.37
2018-03-26T05:26:42.298Z,26.33
2018-03-26T05:29:08.577Z,23.70
2018-03-26T05:31:34.894Z,25.33
2018-03-26T05:34:01.226Z,24.53
2018-03-26T05:36:27.417Z,23.57
2018-03-26T05:38:53.622Z,23.00
2018-03-26T05:41:19.812Z,24.23
2018-03-26T05:43:46.120Z,26.33
2018-03-26T05:46:12.505Z,25.50
2018-03-26T05:48:38.756Z,26.10
2018-03-26T05:51:05.742Z,25.97
2018-03-26T05:53:32.060Z,25.27
2018-03-26T05:55:58.373Z,25.43
2018-03-26T05:58:25.279Z,25.90
2018-03-26T06:00:51.520Z,25.10
2018-03-26T06:03:17.799Z,23.87
2018-03-26T06:05:44.110Z,24.40
2018-03-26T06:08:10.287Z,23.67
2018-03-26T06:10:36.620Z,23.43
2018-03-26T06:13:02.816Z,22.57
2018-03-26T06:15:29.438Z,23.03
2018-03-26T06:17:56.423Z,23.27
2018-03-26T06:20:24.134Z,22.40
2018-03-26T06:22:50.406Z,22.77
2018-03-26T06:25:16.742Z,23.90
2018-03-26T06:27:42.954Z,25.90
2018-03-26T06:30:09.138Z,24.47
2018-03-26T06:32:35.492Z,24.00
2018-03-26T06:35:01.761Z,24.50
2018-03-26T06:37:30.165Z,25.00
2018-03-26T06:39:57.087Z,22.90
2018-03-26T06:42:25.011Z,24.30
2018-03-26T06:44:51.152Z,24.10
2018-03-26T06:47:17.409Z,24.10
2018-03-26T06:49:43.796Z,23.23
2018-03-26T06:52:10.030Z,24.90
2018-03-26T06:54:36.256Z,25.57
2018-03-26T06:57:02.570Z,24.30
2018-03-26T06:59:28.981Z,22.30
2018-03-26T07:01:55.926Z,23.73
2018-03-26T07:04:22.525Z,22.90
2018-03-26T07:06:48.863Z,25.50
2018-03-26T07:09:15.149Z,24.10
2018-03-26T07:11:41.384Z,23.97
2018-03-26T07:14:07.650Z,21.97
2018-03-26T07:16:34.359Z,22.80
2018-03-26T07:19:00.659Z,26.30
2018-03-26T07:21:26.902Z,26.57
2018-03-26T07:23:53.211Z,27.07
2018-03-26T07:26:19.402Z,27.60
2018-03-26T07:28:46.486Z,28.43
2018-03-26T07:31:12.702Z,29.10
2018-03-26T07:33:39.125Z,27.77
2018-03-26T07:36:05.332Z,27.20
2018-03-26T07:38:31.605Z,28.07
2018-03-26T07:40:57.923Z,26.03
2018-03-26T07:43:24.265Z,36.90
2018-03-26T07:45:50.627Z,33.97
2018-03-26T07:48:16.950Z,28.80
2018-03-26T07:50:43.301Z,28.23
2018-03-26T07:53:09.667Z,30.23
2018-03-26T07:55:36.359Z,28.03
2018-03-26T07:58:18.423Z,26.27
2018-03-26T08:00:44.884Z,26.37
2018-03-26T08:03:11.810Z,25.50
2018-03-26T08:05:38.154Z,25.10
2018-03-26T08:08:04.501Z,23.47
2018-03-26T08:10:31.527Z,24.97
2018-03-26T08:12:57.845Z,24.70
2018-03-26T08:15:24.077Z,23.00
2018-03-26T08:17:50.460Z,24.20
2018-03-26T08:20:17.386Z,24.67
2018-03-26T08:22:44.357Z,25.13
2018-03-26T08:25:10.531Z,24.77
2018-03-26T08:27:36.854Z,24.57
2018-03-26T08:30:03.091Z,25.37
2018-03-26T08:32:29.427Z,24.67
2018-03-26T08:34:55.740Z,22.40
2018-03-26T08:37:21.988Z,24.37
2018-03-26T08:39:48.313Z,23.87
2018-03-26T08:42:16.205Z,24.07
2018-03-26T08:44:43.042Z,24.70
2018-03-26T08:47:10.150Z,25.00
2018-03-26T08:49:36.306Z,25.07
2018-03-26T08:52:03.399Z,24.40
2018-03-26T08:54:29.623Z,26.03
2018-03-26T08:56:55.789Z,25.47
2018-03-26T08:59:22.775Z,25.00
2018-03-26T09:01:48.991Z,25.90
2018-03-26T09:04:15.227Z,24.00
2018-03-26T09:06:41.402Z,25.33
2018-03-26T09:09:07.969Z,25.93
2018-03-26T09:11:35.030Z,25.00
2018-03-26T09:14:01.973Z,23.63
2018-03-26T09:16:28.184Z,24.57
2018-03-26T09:18:55.326Z,22.73
2018-03-26T09:21:22.310Z,24.83
2018-03-26T09:23:48.602Z,24.00
2018-03-26T09:26:15.576Z,24.67
2018-03-26T09:28:41.950Z,26.53
2018-03-26T09:31:08.229Z,25.20
2018-03-26T09:33:34.617Z,24.70
2018-03-26T09:36:00.862Z,24.87
2018-03-26T09:38:27.844Z,23.30
2018-03-26T09:40:54.162Z,24.37
2018-03-26T09:43:20.394Z,24.90
2018-03-26T09:45:46.642Z,23.83
2018-03-26T09:48:12.767Z,26.40
2018-03-26T09:50:39.038Z,24.10
2018-03-26T09:53:05.254Z,24.40
2018-03-26T09:55:32.222Z,24.60
2018-03-26T09:57:59.194Z,26.10
2018-03-26T10:00:31.589Z,23.97
2018-03-26T10:02:57.768Z,25.77
2018-03-26T10:05:24.053Z,26.00
2018-03-26T10:07:50.534Z,25.30
2018-03-26T10:10:17.472Z,23.97
2018-03-26T10:12:44.524Z,22.80
2018-03-26T10:15:11.518Z,27.30
2018-03-26T10:17:37.858Z,25.40
2018-03-26T10:20:04.072Z,24.60
2018-03-26T10:22:30.449Z,26.10
2018-03-26T10:24:57.397Z,26.57
2018-03-26T10:27:23.654Z,27.03
2018-03-26T10:29:49.915Z,25.30
2018-03-26T10:32:16.955Z,24.60
2018-03-26T10:34:43.140Z,26.37
2018-03-26T10:37:09.435Z,28.40
2018-03-26T10:39:35.742Z,27.37
2018-03-26T10:42:02.062Z,29.67
2018-03-26T10:44:28.341Z,29.30
2018-03-26T10:46:55.336Z,28.80
2018-03-26T10:49:21.605Z,28.10
2018-03-26T10:51:48.728Z,28.20
2018-03-26T10:54:15.043Z,28.50
2018-03-26T10:56:41.284Z,29.33
2018-03-26T10:59:08.355Z,29.80
2018-03-26T11:01:35.420Z,29.27
2018-03-26T11:04:01.817Z,30.20
2018-03-26T11:06:28.753Z,29.23
2018-03-26T11:08:55.732Z,30.30
2018-03-26T11:11:21.942Z,30.07
2018-03-26T11:13:48.977Z,31.57
2018-03-26T11:16:16.869Z,29.60
2018-03-26T11:18:59.041Z,29.83
2018-03-26T11:21:25.386Z,31.03
2018-03-26T11:23:52.463Z,31.20
2018-03-26T11:26:18.777Z,31.23
2018-03-26T11:28:45.703Z,31.17
2018-03-26T11:31:12.624Z,31.17
2018-03-26T11:33:38.772Z,28.47
2018-03-26T11:36:05.775Z,30.20
2018-03-26T11:38:31.992Z,30.07
2018-03-26T11:40:58.212Z,30.33
2018-03-26T11:43:24.364Z,31.10
2018-03-26T11:45:50.554Z,30.17
2018-03-26T11:48:16.801Z,28.77
2018-03-26T11:50:42.929Z,27.80
2018-03-26T11:53:09.125Z,29.93
2018-03-26T11:55:36.164Z,29.90
2018-03-26T11:58:03.078Z,30.00
2018-03-26T12:00:29.301Z,29.87
2018-03-26T12:02:55.630Z,29.40
2018-03-26T12:05:22.635Z,27.73
2018-03-26T12:07:48.890Z,29.30
2018-03-26T12:10:15.104Z,30.40
2018-03-26T12:12:41.708Z,30.53
2018-03-26T12:15:08.391Z,28.67
2018-03-26T12:17:34.619Z,31.80
2018-03-26T12:20:13.172Z,28.90
2018-03-26T12:22:40.217Z,29.63
2018-03-26T12:25:12.045Z,28.67
2018-03-26T12:27:50.552Z,29.87
2018-03-26T12:30:17.663Z,29.60
2018-03-26T12:32:43.829Z,29.33
2018-03-26T12:35:22.252Z,31.43
2018-03-26T12:37:48.463Z,29.50
2018-03-26T12:40:26.915Z,29.40
2018-03-26T12:42:54.530Z,29.33
2018-03-26T12:45:32.870Z,29.23
2018-03-26T12:47:59.058Z,29.27
2018-03-26T12:50:37.708Z,28.93
2018-03-26T12:53:03.905Z,30.70
2018-03-26T12:55:30.061Z,31.60
2018-03-26T12:58:09.999Z,32.07
2018-03-26T13:00:36.230Z,31.30
2018-03-26T13:03:02.507Z,29.40
2018-03-26T13:05:28.678Z,29.70
2018-03-26T13:07:56.320Z,31.70
2018-03-26T13:10:22.567Z,29.53
2018-03-26T13:12:48.714Z,31.07
2018-03-26T13:15:15.821Z,30.27
2018-03-26T13:17:42.307Z,32.50
2018-03-26T13:20:09.275Z,30.33
2018-03-26T13:22:35.734Z,29.80
2018-03-26T13:25:02.190Z,30.10
2018-03-26T13:27:28.325Z,29.27
2018-03-26T13:29:55.328Z,29.97
2018-03-26T13:32:21.503Z,30.77
2018-03-26T13:34:48.373Z,30.43
2018-03-26T13:37:14.542Z,32.20
2018-03-26T13:39:41.693Z,30.57
2018-03-26T13:42:08.044Z,32.90
2018-03-26T13:44:34.882Z,28.83
2018-03-26T13:47:01.219Z,27.60
2018-03-26T13:49:28.469Z,28.40
2018-03-26T13:51:55.345Z,26.90
2018-03-26T13:54:21.633Z,26.13
2018-03-26T13:56:48.768Z,25.00
2018-03-26T13:59:14.950Z,23.90
2018-03-26T14:01:41.099Z,22.90
2018-03-26T14:04:07.262Z,24.70
2018-03-26T14:06:34.836Z,24.80
2018-03-26T14:09:13.287Z,25.93
2018-03-26T14:11:51.621Z,26.30
2018-03-26T14:14:31.250Z,24.60
2018-03-26T14:17:09.714Z,25.50
2018-03-26T14:19:36.015Z,24.93
2018-03-26T14:22:02.222Z,25.10
2018-03-26T14:24:28.432Z,21.73
2018-03-26T14:26:54.593Z,23.60
2018-03-26T14:29:20.746Z,21.57
2018-03-26T14:31:47.594Z,19.53
2018-03-26T14:34:13.815Z,22.20
2018-03-26T14:36:40.108Z,20.10
2018-03-26T14:39:07.025Z,19.00
2018-03-26T14:41:33.164Z,19.13
2018-03-26T14:44:00.186Z,17.83
2018-03-26T14:46:26.466Z,19.50
2018-03-26T14:48:52.736Z,18.73
2018-03-26T14:51:18.906Z,19.17
2018-03-26T14:53:46.673Z,20.67
2018-03-26T14:56:12.987Z,18.90
2018-03-26T14:58:39.169Z,19.40
2018-03-26T15:01:05.293Z,19.57
2018-03-26T15:03:31.466Z,18.13
2018-03-26T15:05:58.503Z,18.93
2018-03-26T15:08:39.638Z,20.73
2018-03-26T15:11:05.970Z,19.60
2018-03-26T15:13:32.255Z,20.80
2018-03-26T15:15:58.377Z,19.13
2018-03-26T15:18:24.630Z,18.57
2018-03-26T15:20:51.766Z,18.70
2018-03-26T15:23:18.086Z,18.87
2018-03-26T15:25:51.182Z,17.80
2018-03-26T15:28:18.105Z,18.97
2018-03-26T15:30:44.275Z,19.23
2018-03-26T15:33:10.470Z,20.30
2018-03-26T15:35:36.875Z,20.63
2018-03-26T15:38:03.078Z,21.37
2018-03-26T15:40:29.296Z,22.93
2018-03-26T15:42:55.459Z,23.10
2018-03-26T15:45:21.722Z,20.60
2018-03-26T15:47:48.754Z,22.27
2018-03-26T15:50:14.974Z,25.17
2018-03-26T15:52:42.725Z,25.33
2018-03-26T15:55:08.955Z,24.77
2018-03-26T15:57:35.141Z,26.00
2018-03-26T16:00:01.334Z,25.13
2018-03-26T16:02:34.300Z,23.20
2018-03-26T16:05:00.460Z,22.30
2018-03-26T16:07:26.702Z,23.63
2018-03-26T16:09:52.879Z,22.83
2018-03-26T16:12:19.060Z,22.40
2018-03-26T16:14:45.219Z,23.83
2018-03-26T16:17:11.514Z,23.27
2018-03-26T16:19:37.745Z,22.03
2018-03-26T16:22:03.949Z,23.80
2018-03-26T16:24:30.844Z,22.43
2018-03-26T16:26:57.039Z,22.43
2018-03-26T16:29:23.235Z,21.53
2018-03-26T16:31:50.143Z,20.13
2018-03-26T16:34:16.338Z,21.87
2018-03-26T16:36:42.979Z,22.07
2018-03-26T16:39:09.202Z,21.20
2018-03-26T16:41:45.648Z,21.90
2018-03-26T16:44:11.836Z,22.77
2018-03-26T16:46:38.091Z,21.50
2018-03-26T16:49:05.103Z,22.00
2018-03-26T16:51:32.058Z,22.03
2018-03-26T16:53:58.503Z,22.47
2018-03-26T16:56:25.474Z,22.10
2018-03-26T16:58:51.758Z,21.50
2018-03-26T17:01:18.804Z,19.87
2018-03-26T17:03:45.757Z,25.43
2018-03-26T17:06:12.774Z,23.00
2018-03-26T17:08:39.116Z,22.37
2018-03-26T17:11:06.824Z,21.33
2018-03-26T17:13:33.002Z,23.00
2018-03-26T17:15:59.215Z,20.70
2018-03-26T17:18:25.378Z,20.67
2018-03-26T17:20:52.282Z,19.80
2018-03-26T17:23:18.429Z,21.00
2018-03-26T17:25:46.037Z,20.67
2018-03-26T17:28:12.209Z,21.30
2018-03-26T17:30:39.138Z,27.20
2018-03-26T17:33:05.406Z,27.07
2018-03-26T17:35:32.384Z,27.13
2018-03-26T17:37:58.656Z,23.97
2018-03-26T17:40:26.455Z,23.37
2018-03-26T17:42:52.756Z,21.87
2018-03-26T17:45:18.936Z,21.23
2018-03-26T17:47:45.108Z,20.27
2018-03-26T17:50:12.173Z,19.40
2018-03-26T17:52:39.179Z,19.53
2018-03-26T17:55:05.519Z,19.70
2018-03-26T17:57:31.786Z,21.13
2018-03-26T17:59:57.974Z,19.77
2018-03-26T18:02:24.189Z,19.20
2018-03-26T18:04:50.372Z,20.83
2018-03-26T18:07:16.637Z,20.77
2018-03-26T18:09:42.809Z,22.20
2018-03-26T18:12:09.752Z,20.60
2018-03-26T18:14:36.902Z,19.43
2018-03-26T18:17:03.870Z,21.40
2018-03-26T18:19:30.190Z,22.13
2018-03-26T18:21:56.387Z,22.20
2018-03-26T18:24:22.610Z,32.50
2018-03-26T18:26:49.472Z,37.37
2018-03-26T18:29:15.850Z,37.20
2018-03-26T18:31:42.048Z,35.30
2018-03-26T18:34:08.476Z,33.93
2018-03-26T18:36:34.950Z,36.20
2018-03-26T18:39:02.744Z,28.00
2018-03-26T18:41:30.715Z,32.80
2018-03-26T18:43:58.236Z,33.00
2018-03-26T18:46:24.461Z,32.77
2018-03-26T18:48:50.730Z,28.13
2018-03-26T18:51:17.801Z,23.83
2018-03-26T18:53:44.909Z,25.30
2018-03-26T18:56:11.070Z,30.00
2018-03-26T18:58:37.335Z,29.67
2018-03-26T19:01:03.606Z,26.67
2018-03-26T19:03:29.770Z,25.80
2018-03-26T19:05:56.076Z,24.20
2018-03-26T19:08:23.005Z,24.30
2018-03-26T19:10:49.925Z,29.63
2018-03-26T19:13:16.210Z,27.80
2018-03-26T19:15:42.565Z,23.30
2018-03-26T19:18:08.735Z,19.90
2018-03-26T19:20:35.753Z,17.70
2018-03-26T19:23:02.002Z,23.83
2018-03-26T19:25:29.003Z,24.30
2018-03-26T19:27:55.451Z,21.60
2018-03-26T19:30:23.256Z,25.83
2018-03-26T19:32:49.493Z,24.43
2018-03-26T19:35:15.705Z,21.07
2018-03-26T19:37:42.687Z,20.10
2018-03-26T19:40:08.929Z,18.60
2018-03-26T19:42:35.078Z,18.60
2018-03-26T19:45:01.278Z,19.00
2018-03-26T19:47:27.541Z,14.67
2018-03-26T19:49:53.713Z,14.97
2018-03-26T19:52:19.946Z,14.50
2018-03-26T19:54:46.272Z,15.43
2018-03-26T19:57:12.432Z,15.30
2018-03-26T19:59:40.124Z,15.00
2018-03-26T20:02:07.127Z,17.07
2018-03-26T20:04:33.304Z,15.70
2018-03-26T20:06:59.491Z,15.33
2018-03-26T20:09:25.673Z,14.07
2018-03-26T20:11:51.911Z,16.20
2018-03-26T20:14:18.147Z,14.53
2018-03-26T20:16:44.423Z,14.00
2018-03-26T20:19:11.477Z,15.20
2018-03-26T20:21:38.416Z,13.07
2018-03-26T20:24:05.472Z,12.53
2018-03-26T20:26:31.670Z,13.83
2018-03-26T20:28:58.615Z,13.40
2018-03-26T20:31:24.791Z,13.67
2018-03-26T20:33:51.069Z,14.53
2018-03-26T20:36:17.344Z,14.57
2018-03-26T20:38:43.506Z,14.57
2018-03-26T20:41:09.730Z,12.80
2018-03-26T20:43:37.415Z,13.77
2018-03-26T20:46:04.336Z,14.40
2018-03-26T20:48:30.642Z,13.57
2018-03-26T20:50:56.893Z,13.63
2018-03-26T20:53:23.232Z,14.00
2018-03-26T20:55:50.915Z,13.30
2018-03-26T20:58:17.945Z,13.20
2018-03-26T21:00:44.174Z,12.43
2018-03-26T21:03:10.357Z,14.10
2018-03-26T21:05:36.549Z,13.23
2018-03-26T21:08:02.728Z,14.27
2018-03-26T21:10:28.960Z,12.87
2018-03-26T21:12:55.941Z,14.53
2018-03-26T21:15:22.197Z,13.80
2018-03-26T21:17:48.430Z,13.13
2018-03-26T21:20:14.571Z,14.03
2018-03-26T21:22:40.775Z,13.47
2018-03-26T21:25:06.949Z,11.73
2018-03-26T21:27:33.123Z,12.00
2018-03-26T21:29:59.231Z,12.33
2018-03-26T21:32:25.432Z,13.60
2018-03-26T21:34:53.464Z,19.10
2018-03-26T21:37:19.841Z,23.20
2018-03-26T21:39:46.985Z,31.47
2018-03-26T21:42:13.382Z,23.43
2018-03-26T21:44:39.636Z,34.23
2018-03-26T21:47:05.944Z,33.80
2018-03-26T21:49:32.101Z,32.63
2018-03-26T21:51:59.021Z,29.00
2018-03-26T21:54:25.956Z,21.30
2018-03-26T21:56:54.600Z,26.90
2018-03-26T21:59:20.886Z,30.60
2018-03-26T22:01:48.010Z,28.00
2018-03-26T22:04:14.545Z,26.30
2018-03-26T22:06:40.719Z,24.93
2018-03-26T22:09:06.939Z,22.60
2018-03-26T22:11:33.206Z,20.57
2018-03-26T22:13:59.501Z,18.97
2018-03-26T22:16:25.702Z,22.13
2018-03-26T22:18:52.722Z,22.97
2018-03-26T22:21:18.991Z,26.77
2018-03-26T22:23:45.278Z,26.70
2018-03-26T22:26:11.640Z,22.10
2018-03-26T22:28:38.626Z,20.80
2018-03-26T22:31:04.827Z,22.87
2018-03-26T22:33:31.144Z,21.57
2018-03-26T22:35:57.367Z,25.13
2018-03-26T22:38:24.362Z,31.80
2018-03-26T22:40:50.536Z,28.67
2018-03-26T22:43:17.557Z,30.57
2018-03-26T22:45:43.783Z,38.97
2018-03-26T22:48:09.972Z,40.93
2018-03-26T22:50:36.197Z,32.97
2018-03-26T22:53:02.383Z,35.80
2018-03-26T22:55:29.289Z,36.20
2018-03-26T22:57:55.492Z,26.97
2018-03-26T23:00:21.626Z,22.57
2018-03-26T23:02:47.852Z,18.37
2018-03-26T23:05:14.014Z,22.37
2018-03-26T23:07:41.859Z,20.50
2018-03-26T23:10:08.101Z,62.13
2018-03-26T23:12:34.241Z,57.50
2018-03-26T23:15:01.266Z,36.70
2018-03-26T23:17:28.342Z,20.43
2018-03-26T23:19:55.301Z,21.60
2018-03-26T23:22:33.835Z,26.10
2018-03-26T23:25:00.028Z,29.00
2018-03-26T23:27:26.935Z,26.23
2018-03-26T23:29:53.220Z,24.20
2018-03-26T23:32:19.449Z,22.33
2018-03-26T23:34:45.717Z,20.90
2018-03-26T23:37:11.909Z,12.80
2018-03-26T23:39:39.088Z,15.50
2018-03-26T23:42:05.232Z,15.23
2018-03-26T23:44:31.480Z,17.07
2018-03-26T23:46:58.630Z,17.90
2018-03-26T23:49:25.753Z,17.63
2018-03-26T23:51:52.295Z,15.13
2018-03-26T23:54:18.553Z,14.90
2018-03-26T23:56:45.450Z,12.53
2018-03-26T23:59:11.793Z,9.27
